Edzo, Canada
Current Conditions -  °F | °C
As of 6:25 AM on Saturday 25 Oct 2014 (Local Time) from CYZF Reporting Station
Light Snow Light Snow  
Wind Chill: 15°   Ceiling: 900
Heat Index: 25°   Visibility: 10mi
Dew Point: 23°   Wind: 10mph
Humidity: 93%   Direction: 350°N
Pressure: 29.84"   Gusts: NA
Location:  62.78°N, 116.03°W
Report Text: CYZF 251225Z 35009KT 10SM -SN OVC009 M04/M05 A2984 RMK SC8 SLP122
Loading
Personal Weather Stations






























Interactive Weather Map
Tropical Storm Tracking
New forecast layout! Learn more

10-Day Weather Forecast

Advertisements
Track Severe Weather on mobile